Terminal Aerodrome Forecast
Issued by NWS Austin/San Antonio, TX

Current Version | Previous Version | Text Only | Print | Product List | Glossary On
Versions: 1 2 3 4 5 6 7 8 9 10 11 12 13 14 15 16 17 18 19 20 21 22
000
FTUS44 KEWX 190700 AAA
TAFAUS
TAF AMD
KAUS 190754Z 1908/2012 01011KT 4SM -SHRA VCTS BKN007 OVC015CB
     FM191000 01012KT 4SM -SHRA BR OVC003
     FM191600 01010KT 5SM BR VCSH OVC007
     FM191800 01011KT P6SM OVC015
     FM200200 01007KT P6SM OVC012
     FM200500 36005KT 5SM BR OVC005=

USA.gov is the U.S. government's official web portal to all federal, state and local government web resources and services.